Time;durP1;ratioP1;P1;durP2;ratioP2;P2;SDS_P1;SDS_P2;PMS_P1;PMS_P2;Temp;Humidity;BMP_temperature;BMP_pressure;BME280_temperature;BME280_humidity;BME280_pressure;Samples;Min_cycle;Max_cycle;Signal;HPM_P1;HPM_P2
2023/05/13 00:00:27;;;;;;;3.88;2.65;;;;;;;8.09;100.00;92488.41;4934692;29;20062;-77
2023/05/13 00:02:53;;;;;;;4.80;2.42;;;;;;;8.08;100.00;92483.47;4951897;28;20062;-77
2023/05/13 00:05:18;;;;;;;3.85;2.65;;;;;;;8.08;100.00;92484.25;4919044;29;20043;-77
2023/05/13 00:07:44;;;;;;;4.22;2.45;;;;;;;8.06;100.00;92486.38;4951637;29;20031;-77
2023/05/13 00:10:10;;;;;;;4.22;2.25;;;;;;;8.05;100.00;92484.78;4950633;29;20130;-77
2023/05/13 00:12:36;;;;;;;3.35;2.28;;;;;;;8.03;100.00;92489.50;4951322;28;20042;-77
2023/05/13 00:15:02;;;;;;;3.50;2.13;;;;;;;8.02;100.00;92482.72;4951626;29;20047;-77
2023/05/13 00:17:28;;;;;;;4.03;2.10;;;;;;;7.98;100.00;92478.31;4951091;29;20027;-77
2023/05/13 00:19:54;;;;;;;3.20;2.05;;;;;;;7.98;100.00;92478.31;4934888;29;20051;-77
2023/05/13 00:22:19;;;;;;;3.70;2.35;;;;;;;7.96;100.00;92475.97;4903184;29;20043;-77
2023/05/13 00:24:45;;;;;;;3.47;2.22;;;;;;;7.94;100.00;92478.06;4952044;28;20043;-77
2023/05/13 00:27:11;;;;;;;3.45;2.00;;;;;;;7.94;100.00;92470.25;4951548;29;20070;-77
2023/05/13 00:29:37;;;;;;;5.07;2.15;;;;;;;7.97;100.00;92474.94;4941058;29;20058;-77
2023/05/13 00:32:03;;;;;;;3.33;1.70;;;;;;;7.95;100.00;92477.03;4948666;29;20035;-77
2023/05/13 00:34:28;;;;;;;3.53;1.70;;;;;;;7.92;100.00;92472.34;4952010;28;20122;-77
2023/05/13 00:36:54;;;;;;;3.15;1.60;;;;;;;7.93;100.00;92468.72;4953515;29;20042;-77
2023/05/13 00:39:19;;;;;;;2.50;1.58;;;;;;;7.92;100.00;92477.56;4954726;29;20047;-77
2023/05/13 00:41:45;;;;;;;3.10;1.65;;;;;;;7.89;100.00;92472.91;4922535;29;20130;-77
2023/05/13 00:44:10;;;;;;;2.45;1.52;;;;;;;7.87;100.00;92465.34;4952410;28;20042;-77
2023/05/13 00:46:37;;;;;;;3.50;1.77;;;;;;;7.88;100.00;92468.72;4954644;29;20035;-77
2023/05/13 00:49:03;;;;;;;4.63;1.80;;;;;;;7.87;100.00;92477.59;4937288;29;20039;-77
2023/05/13 00:51:31;;;;;;;2.67;1.60;;;;;;;7.84;100.00;92471.09;4954844;29;20074;-77
2023/05/13 00:53:58;;;;;;;2.33;1.40;;;;;;;7.83;100.00;92489.59;4950648;28;20047;-77
2023/05/13 00:56:24;;;;;;;2.85;1.48;;;;;;;7.84;100.00;92485.97;4954908;29;20051;-77
2023/05/13 00:58:50;;;;;;;2.00;1.40;;;;;;;7.82;100.00;92488.84;4954236;29;20085;-77
2023/05/13 01:01:23;;;;;;;4.00;1.40;;;;;;;7.81;100.00;92482.03;4952821;29;20039;-77
2023/05/13 01:03:54;;;;;;;2.28;1.52;;;;;;;7.83;100.00;92489.59;4936582;29;20050;-77
2023/05/13 01:06:59;;;;;;;1.65;1.25;;;;;;;7.82;100.00;92485.44;4953408;29;20457;-77
2023/05/13 01:09:39;;;;;;;2.38;1.40;;;;;;;7.81;100.00;92486.47;4954292;29;20039;-77
2023/05/13 01:12:14;;;;;;;1.88;1.30;;;;;;;7.76;100.00;92483.91;4952520;28;20058;-77
2023/05/13 01:14:48;;;;;;;1.85;1.20;;;;;;;7.74;100.00;92494.59;4946102;29;20493;-77
2023/05/13 01:17:27;;;;;;;2.00;1.30;;;;;;;7.74;100.00;92486.00;4954517;29;20039;-76
2023/05/13 01:19:57;;;;;;;2.53;1.30;;;;;;;7.71;100.00;92495.13;4936570;29;20046;-76
2023/05/13 01:22:22;;;;;;;2.08;1.27;;;;;;;7.70;100.00;92485.75;4953608;29;20031;-77
2023/05/13 01:24:49;;;;;;;2.17;1.30;;;;;;;7.71;100.00;92489.94;4936944;29;20094;-77
2023/05/13 01:27:15;;;;;;;1.65;1.20;;;;;;;7.70;100.00;92491.75;4953512;29;20031;-77
2023/05/13 01:29:42;;;;;;;2.85;1.30;;;;;;;7.72;100.00;92484.47;4952436;29;20050;-77
2023/05/13 01:32:10;;;;;;;1.95;1.10;;;;;;;7.72;100.00;92489.66;4936441;29;20460;-77
2023/05/13 01:34:39;;;;;;;1.77;1.17;;;;;;;7.74;100.00;92486.00;4920704;29;20186;-77
2023/05/13 01:37:05;;;;;;;5.25;1.40;;;;;;;7.74;100.00;92486.00;4936652;29;20034;-77
2023/05/13 01:39:31;;;;;;;2.58;1.30;;;;;;;7.74;100.00;92488.59;4918950;29;20065;-77
2023/05/13 01:42:01;;;;;;;2.83;1.50;;;;;;;7.72;100.00;92489.66;4952516;29;20509;-77
2023/05/13 01:44:26;;;;;;;1.77;1.20;;;;;;;7.70;100.00;92491.75;4951899;28;20063;-77
2023/05/13 01:46:52;;;;;;;2.10;1.30;;;;;;;7.71;100.00;92488.09;4902727;29;20086;-76
2023/05/13 01:49:18;;;;;;;4.20;1.30;;;;;;;7.72;100.00;92486.25;4924752;29;20055;-77
2023/05/13 01:51:44;;;;;;;5.05;1.30;;;;;;;7.71;100.00;92490.69;4936171;29;20740;-77
2023/05/13 01:54:10;;;;;;;1.67;1.10;;;;;;;7.70;100.00;92490.97;4950884;28;20059;-77
2023/05/13 01:56:39;;;;;;;2.08;1.30;;;;;;;7.66;100.00;92485.50;4935438;29;20539;-77
2023/05/13 01:59:05;;;;;;;2.85;1.33;;;;;;;7.66;100.00;92488.13;4952627;29;20032;-76
2023/05/13 02:01:31;;;;;;;2.83;1.30;;;;;;;7.66;100.00;92492.56;4952576;29;20375;-77
2023/05/13 02:03:58;;;;;;;2.20;1.35;;;;;;;7.65;100.00;92491.75;4952248;28;20035;-77
2023/05/13 02:06:24;;;;;;;1.90;1.20;;;;;;;7.66;100.00;92487.34;4935745;29;20379;-77
2023/05/13 02:08:50;;;;;;;1.90;1.30;;;;;;;7.66;100.00;92482.91;4935916;29;20035;-77
2023/05/13 02:11:16;;;;;;;2.55;1.40;;;;;;;7.67;100.00;92492.28;4953301;28;20386;-77
2023/05/13 02:13:41;;;;;;;1.65;1.20;;;;;;;7.65;100.00;92491.00;4936202;29;20107;-77
2023/05/13 02:16:07;;;;;;;2.20;1.40;;;;;;;7.63;100.00;92486.06;4951266;29;20098;-77
2023/05/13 02:18:32;;;;;;;2.20;1.48;;;;;;;7.64;100.00;92487.59;4935571;29;20444;-78
2023/05/13 02:20:58;;;;;;;2.85;1.63;;;;;;;7.65;100.00;92486.56;4920204;29;20508;-77
2023/05/13 02:23:24;;;;;;;3.25;1.50;;;;;;;7.64;100.00;92487.59;4934163;29;20071;-77
2023/05/13 02:25:49;;;;;;;3.42;1.45;;;;;;;7.64;100.00;92482.41;4949629;29;20043;-77
2023/05/13 02:28:15;;;;;;;3.25;1.58;;;;;;;7.64;100.00;92485.00;4953302;29;20109;-77
2023/05/13 02:30:40;;;;;;;2.33;1.30;;;;;;;7.67;100.00;92481.84;4950755;29;20043;-77
2023/05/13 02:33:06;;;;;;;2.58;1.55;;;;;;;7.65;100.00;92477.97;4951640;28;20032;-77
2023/05/13 02:35:32;;;;;;;1.90;1.35;;;;;;;7.62;100.00;92473.28;4919260;29;20027;-77
2023/05/13 02:37:59;;;;;;;2.42;1.52;;;;;;;7.63;100.00;92472.25;4951772;29;20031;-77
2023/05/13 02:40:26;;;;;;;5.05;1.65;;;;;;;7.63;100.00;92480.84;4950690;29;20524;-77
2023/05/13 02:42:52;;;;;;;1.98;1.30;;;;;;;7.59;100.00;92469.41;4918008;29;20064;-76
2023/05/13 02:45:24;;;;;;;3.17;1.48;;;;;;;7.62;100.00;92473.28;4917212;29;20504;-76
2023/05/13 02:47:53;;;;;;;2.22;1.48;;;;;;;7.59;100.00;92468.59;4935321;29;20398;-76
2023/05/13 02:50:18;;;;;;;3.95;1.60;;;;;;;7.58;100.00;92469.66;4953582;29;20039;-76
2023/05/13 02:52:44;;;;;;;5.57;1.40;;;;;;;7.58;100.00;92469.66;4950988;28;20054;-76
2023/05/13 02:55:10;;;;;;;6.55;1.52;;;;;;;7.57;100.00;92466.28;4950310;29;20043;-76
2023/05/13 02:57:39;;;;;;;1.80;1.23;;;;;;;7.55;100.00;92457.94;4951127;29;20374;-76
2023/05/13 03:00:06;;;;;;;1.90;1.20;;;;;;;7.53;100.00;92465.25;4934826;29;20451;-76
2023/05/13 03:02:33;;;;;;;2.33;1.42;;;;;;;7.54;100.00;92460.81;4951434;28;20062;-76
2023/05/13 03:04:59;;;;;;;4.53;1.33;;;;;;;7.54;100.00;92460.81;4951329;29;20032;-76
2023/05/13 03:07:25;;;;;;;3.10;1.55;;;;;;;7.53;100.00;92465.25;4918300;29;20054;-76
2023/05/13 03:09:50;;;;;;;1.67;1.30;;;;;;;7.54;100.00;92460.81;4934522;29;20058;-76
2023/05/13 03:12:16;;;;;;;6.72;1.90;;;;;;;7.52;100.00;92463.72;4935474;29;20126;-76
2023/05/13 03:14:43;;;;;;;2.42;1.42;;;;;;;7.53;100.00;92464.47;4951196;28;20187;-76
2023/05/13 03:17:10;;;;;;;3.00;1.50;;;;;;;7.54;100.00;92466.78;4918712;29;20073;-76
2023/05/13 03:19:37;;;;;;;5.07;1.42;;;;;;;7.55;100.00;92459.78;4935216;29;20027;-76
2023/05/13 03:22:03;;;;;;;3.30;1.45;;;;;;;7.55;100.00;92470.19;4935217;29;20477;-76
2023/05/13 03:24:29;;;;;;;1.90;1.38;;;;;;;7.52;100.00;92466.31;4952232;28;20090;-76
2023/05/13 03:26:56;;;;;;;2.78;1.50;;;;;;;7.50;100.00;92465.78;4934730;29;20027;-76
2023/05/13 03:29:22;;;;;;;2.55;1.40;;;;;;;7.52;100.00;92463.72;4950974;29;20044;-76
2023/05/13 03:31:49;;;;;;;2.80;1.65;;;;;;;7.48;100.00;92463.44;4934822;29;20076;-76
2023/05/13 03:34:15;;;;;;;1.77;1.30;;;;;;;7.51;100.00;92467.34;4951890;28;20050;-76
2023/05/13 03:36:41;;;;;;;2.85;1.50;;;;;;;7.47;100.00;92467.09;4918659;29;20059;-76
2023/05/13 03:39:07;;;;;;;1.90;1.33;;;;;;;7.48;100.00;92470.50;4933489;29;20141;-76
2023/05/13 03:41:33;;;;;;;2.90;1.52;;;;;;;7.46;100.00;92469.97;4935509;29;20050;-76
2023/05/13 03:43:59;;;;;;;2.97;1.45;;;;;;;7.49;100.00;92474.66;4952591;28;20039;-76
2023/05/13 03:46:28;;;;;;;2.47;1.40;;;;;;;7.48;100.00;92473.09;4917675;29;20040;-76
2023/05/13 03:48:54;;;;;;;5.22;1.50;;;;;;;7.47;100.00;92479.34;4933536;29;20035;-76
2023/05/13 03:51:21;;;;;;;3.22;1.60;;;;;;;7.45;100.00;92478.81;4918890;29;20039;-76
2023/05/13 03:53:47;;;;;;;2.83;1.60;;;;;;;7.43;100.00;92475.69;4931853;29;20406;-76
2023/05/13 03:56:13;;;;;;;3.53;1.52;;;;;;;7.43;100.00;92481.72;4931733;29;20039;-76
2023/05/13 03:58:40;;;;;;;3.97;1.50;;;;;;;7.41;100.00;92478.59;4915295;29;20115;-76
2023/05/13 04:01:06;;;;;;;2.38;1.40;;;;;;;7.40;100.00;92476.25;4912041;29;20131;-76
2023/05/13 04:03:33;;;;;;;2.50;1.42;;;;;;;7.41;100.00;92483.81;4943967;28;20031;-76
2023/05/13 04:05:58;;;;;;;3.08;1.30;;;;;;;7.43;100.00;92486.13;4931221;29;20028;-76
2023/05/13 04:08:24;;;;;;;1.80;1.30;;;;;;;7.43;100.00;92486.13;4931331;29;20095;-76
2023/05/13 04:10:50;;;;;;;2.15;1.33;;;;;;;7.44;100.00;92483.25;4932773;29;20035;-76
2023/05/13 04:13:15;;;;;;;1.95;1.35;;;;;;;7.43;100.00;92483.50;4935948;29;20594;-76
2023/05/13 04:15:42;;;;;;;2.70;1.63;;;;;;;7.43;100.00;92494.72;4935021;29;20040;-76
2023/05/13 04:18:07;;;;;;;3.42;1.50;;;;;;;7.45;100.00;92489.25;4935258;29;20031;-76
2023/05/13 04:20:33;;;;;;;3.08;1.58;;;;;;;7.46;100.00;92494.19;4936281;29;20067;-76
2023/05/13 04:23:00;;;;;;;4.00;1.55;;;;;;;7.47;100.00;92487.16;4936230;29;20059;-76
2023/05/13 04:25:26;;;;;;;3.05;1.40;;;;;;;7.47;100.00;92490.53;4917238;29;20465;-76
2023/05/13 04:27:51;;;;;;;2.08;1.40;;;;;;;7.48;100.00;92493.94;4935137;29;20071;-76
2023/05/13 04:30:24;;;;;;;2.67;1.35;;;;;;;7.48;100.00;92494.72;4950844;29;20118;-76
2023/05/13 04:32:50;;;;;;;2.17;1.33;;;;;;;7.49;100.00;92503.28;4950221;29;20554;-76
2023/05/13 04:35:16;;;;;;;2.95;1.50;;;;;;;7.52;100.00;92500.19;4935966;29;20034;-76
2023/05/13 04:37:44;;;;;;;3.53;1.58;;;;;;;7.51;100.00;92509.78;4934934;29;20397;-76
2023/05/13 04:40:13;;;;;;;5.25;1.70;;;;;;;7.53;100.00;92512.16;4934643;29;20044;-76
2023/05/13 04:42:38;;;;;;;3.08;1.63;;;;;;;7.52;100.00;92510.59;4934362;29;20042;-76
2023/05/13 04:45:05;;;;;;;2.33;1.50;;;;;;;7.54;100.00;92518.13;4934131;29;20043;-76
2023/05/13 04:47:33;;;;;;;2.42;1.55;;;;;;;7.55;100.00;92517.88;4934260;29;20067;-76
2023/05/13 04:50:00;;;;;;;2.55;1.58;;;;;;;7.56;100.00;92522.03;4918189;29;20047;-76
2023/05/13 04:52:26;;;;;;;3.10;1.60;;;;;;;7.60;100.00;92528.25;4936444;29;20418;-76
2023/05/13 04:54:51;;;;;;;3.72;1.80;;;;;;;7.61;100.00;92527.22;4917455;29;20040;-76
2023/05/13 04:57:17;;;;;;;2.85;1.60;;;;;;;7.61;100.00;92527.22;4936580;29;20074;-76
2023/05/13 04:59:43;;;;;;;5.25;1.50;;;;;;;7.62;100.00;92526.16;4937147;29;20035;-76
2023/05/13 05:02:09;;;;;;;4.63;1.60;;;;;;;7.62;100.00;92530.63;4935250;29;20043;-76
2023/05/13 05:04:35;;;;;;;6.28;1.73;;;;;;;7.63;100.00;92532.16;4934255;29;20509;-75
2023/05/13 05:07:03;;;;;;;3.30;1.80;;;;;;;7.64;100.00;92531.13;4951940;29;20080;-76
2023/05/13 05:09:30;;;;;;;3.17;1.70;;;;;;;7.63;100.00;92532.97;4952333;29;20126;-76
2023/05/13 05:11:56;;;;;;;1.60;1.27;;;;;;;7.62;100.00;92528.78;4936193;29;20492;-76
2023/05/13 05:14:25;;;;;;;3.60;1.67;;;;;;;7.64;100.00;92537.13;4950041;28;20046;-76
2023/05/13 05:16:50;;;;;;;3.58;1.35;;;;;;;7.64;100.00;92539.72;4967414;28;20042;-76
2023/05/13 05:19:16;;;;;;;2.80;1.70;;;;;;;7.64;100.00;92544.94;4956216;28;20066;-75
2023/05/13 05:21:42;;;;;;;3.08;1.60;;;;;;;7.64;100.00;92538.94;4944970;29;20062;-76
2023/05/13 05:24:08;;;;;;;2.63;1.30;;;;;;;7.65;100.00;92548.31;4931219;29;20036;-78
2023/05/13 05:26:34;;;;;;;2.72;1.55;;;;;;;7.67;100.00;92548.81;4951657;28;20081;-77
2023/05/13 05:29:00;;;;;;;2.22;1.30;;;;;;;7.67;100.00;92539.16;4938311;29;20031;-77
2023/05/13 05:31:26;;;;;;;2.20;1.40;;;;;;;7.68;100.00;92548.56;4947646;29;20039;-76
2023/05/13 05:33:52;;;;;;;2.35;1.40;;;;;;;7.68;100.00;92550.41;4937590;29;20047;-77
2023/05/13 05:36:18;;;;;;;2.47;1.40;;;;;;;7.69;100.00;92552.72;4923393;29;20047;-77
2023/05/13 05:38:43;;;;;;;2.45;1.40;;;;;;;7.73;100.00;92550.38;4953087;29;20462;-77
2023/05/13 05:41:10;;;;;;;4.40;1.20;;;;;;;7.75;100.00;92553.50;4919559;29;20043;-77
2023/05/13 05:43:35;;;;;;;3.10;1.60;;;;;;;7.77;100.00;92555.81;4953685;28;20050;-77
2023/05/13 05:46:01;;;;;;;2.08;1.33;;;;;;;7.82;100.00;92559.19;4937269;29;20039;-77
2023/05/13 05:48:27;;;;;;;4.53;1.50;;;;;;;7.83;100.00;92563.34;4938592;29;20484;-77
2023/05/13 05:50:54;;;;;;;3.00;1.30;;;;;;;7.78;100.00;92549.56;4953812;29;20035;-77
2023/05/13 05:53:26;;;;;;;1.75;1.27;;;;;;;7.90;100.00;92557.84;4903724;28;1387741;-77
2023/05/13 05:55:52;;;;;;;8.30;1.70;;;;;;;7.94;100.00;92561.47;4951771;29;20035;-77
2023/05/13 05:58:18;;;;;;;3.42;1.60;;;;;;;7.97;100.00;92563.56;4936433;29;20098;-77
2023/05/13 06:00:44;;;;;;;4.82;2.00;;;;;;;8.01;100.00;92566.41;4936419;29;20035;-77
2023/05/13 06:03:10;;;;;;;4.30;1.92;;;;;;;8.03;100.00;92572.91;4951035;28;20046;-77
2023/05/13 06:05:37;;;;;;;3.50;1.60;;;;;;;8.05;100.00;92576.03;4935942;29;20039;-77
2023/05/13 06:08:02;;;;;;;3.10;1.80;;;;;;;8.09;100.00;92577.06;4936360;29;20346;-77
2023/05/13 06:10:29;;;;;;;2.88;1.63;;;;;;;8.18;100.00;92573.91;4936092;29;20057;-77
2023/05/13 06:12:54;;;;;;;2.22;1.50;;;;;;;8.22;100.00;92574.91;4937238;29;20039;-77
2023/05/13 06:15:20;;;;;;;3.47;1.50;;;;;;;8.29;100.00;92580.63;4935515;29;20116;-77
2023/05/13 06:17:46;;;;;;;2.45;1.40;;;;;;;8.35;100.00;92579.53;4950486;29;20043;-77
2023/05/13 06:20:11;;;;;;;2.67;1.50;;;;;;;8.44;100.00;92582.38;4931493;29;20107;-77
2023/05/13 06:22:37;;;;;;;4.00;1.65;;;;;;;8.52;100.00;92580.00;4934219;29;20039;-77
2023/05/13 06:25:03;;;;;;;4.15;1.50;;;;;;;8.64;100.00;92587.47;4917046;29;20095;-77
2023/05/13 06:27:28;;;;;;;3.17;1.73;;;;;;;8.70;100.00;92583.03;4938247;29;20047;-77
2023/05/13 06:29:54;;;;;;;4.50;1.90;;;;;;;8.72;100.00;92584.31;4932226;29;20130;-79
2023/05/13 06:32:20;;;;;;;3.65;1.70;;;;;;;8.75;100.00;92583.75;4938990;29;20035;-80
2023/05/13 06:34:47;;;;;;;7.68;2.15;;;;;;;8.79;100.00;92589.22;4934886;29;20095;-81
2023/05/13 06:37:13;;;;;;;41.25;2.95;;;;;;;8.81;100.00;92586.34;4926529;29;20063;-80
2023/05/13 06:39:39;;;;;;;3.67;2.30;;;;;;;8.88;100.00;92584.97;4939867;29;20042;-81
2023/05/13 06:42:05;;;;;;;7.53;2.22;;;;;;;8.84;100.00;92583.94;4936949;29;20474;-80
2023/05/13 06:44:38;;;;;;;4.95;2.10;;;;;;;8.86;100.00;92584.47;4951918;28;20060;-79
2023/05/13 06:47:05;;;;;;;6.25;2.50;;;;;;;8.89;100.00;92585.75;4938993;29;20055;-80
2023/05/13 06:49:33;;;;;;;3.42;1.80;;;;;;;8.97;100.00;92590.38;4943028;29;20043;-80
2023/05/13 06:51:59;;;;;;;3.97;1.90;;;;;;;9.00;100.00;92586.44;4957034;28;20039;-80
2023/05/13 06:54:26;;;;;;;4.15;1.83;;;;;;;9.07;100.00;92586.91;4951416;29;20056;-83
2023/05/13 06:56:53;;;;;;;3.55;1.70;;;;;;;9.27;100.00;92591.97;4955899;28;20027;-79
2023/05/13 06:59:20;;;;;;;3.45;1.90;;;;;;;9.32;100.00;92589.31;4951475;28;20053;-80
2023/05/13 07:01:46;;;;;;;3.75;1.98;;;;;;;9.37;100.00;92594.50;4939273;29;20050;-79
2023/05/13 07:04:11;;;;;;;4.78;1.90;;;;;;;9.55;100.00;92589.63;4936592;29;20134;-79
2023/05/13 07:06:37;;;;;;;4.57;2.20;;;;;;;9.69;100.00;92594.97;4938346;29;20047;-78
2023/05/13 07:09:03;;;;;;;2.72;1.80;;;;;;;9.90;100.00;92598.16;4939570;29;20052;-79
2023/05/13 07:11:29;;;;;;;3.22;1.90;;;;;;;10.05;100.00;92590.13;4940207;29;20035;-79
2023/05/13 07:13:54;;;;;;;4.70;2.00;;;;;;;10.21;100.00;92594.13;4940315;29;20043;-79
2023/05/13 07:16:20;;;;;;;2.80;1.70;;;;;;;10.31;100.00;92595.06;4934311;29;20036;-79
2023/05/13 07:18:46;;;;;;;6.18;2.10;;;;;;;10.48;100.00;92599.84;4939464;29;20024;-79
2023/05/13 07:21:13;;;;;;;6.22;2.10;;;;;;;10.58;100.00;92600.50;4936475;29;20036;-79
2023/05/13 07:23:39;;;;;;;4.65;1.95;;;;;;;10.70;100.00;92602.69;4936944;29;20036;-79
2023/05/13 07:26:04;;;;;;;3.65;1.90;;;;;;;10.74;100.00;92592.41;4948047;29;20059;-79
2023/05/13 07:28:30;;;;;;;3.58;1.98;;;;;;;10.76;100.00;92595.50;4937290;29;20434;-79
2023/05/13 07:30:55;;;;;;;3.00;1.90;;;;;;;10.79;100.00;92595.75;4933478;29;20144;-78
2023/05/13 07:33:21;;;;;;;3.80;2.13;;;;;;;10.77;100.00;92597.09;4933970;29;20409;-76
2023/05/13 07:35:47;;;;;;;4.10;1.90;;;;;;;10.58;100.00;92597.88;4938059;29;20047;-77
2023/05/13 07:38:13;;;;;;;3.22;1.90;;;;;;;10.46;100.00;92596.72;4929843;29;20405;-77
2023/05/13 07:40:39;;;;;;;4.07;2.08;;;;;;;10.46;100.00;92592.25;4947230;28;20089;-77
2023/05/13 07:43:05;;;;;;;3.60;2.20;;;;;;;10.40;100.00;92594.19;4928062;29;20040;-77
2023/05/13 07:45:31;;;;;;;3.53;2.00;;;;;;;10.40;100.00;92590.75;4928246;29;20387;-77
2023/05/13 07:47:56;;;;;;;4.00;2.20;;;;;;;10.48;100.00;92592.75;4915700;29;20483;-78
2023/05/13 07:50:22;;;;;;;3.20;2.05;;;;;;;10.62;100.00;92588.38;4918152;29;20046;-77
2023/05/13 07:52:49;;;;;;;5.75;1.90;;;;;;;10.73;100.00;92590.84;4946936;29;20056;-77
2023/05/13 07:55:15;;;;;;;4.97;1.85;;;;;;;10.88;100.00;92579.41;4935368;29;20099;-77
2023/05/13 07:57:40;;;;;;;3.92;1.90;;;;;;;10.92;100.00;92582.97;4953152;28;20032;-79
2023/05/13 08:00:07;;;;;;;4.38;1.92;;;;;;;10.92;100.00;92582.97;4952415;28;20063;-80
2023/05/13 08:02:38;;;;;;;3.40;2.03;;;;;;;10.95;100.00;92582.44;4941942;29;20095;-78
2023/05/13 08:05:05;;;;;;;2.95;1.80;;;;;;;11.11;100.00;92580.34;4943448;29;20541;-79
2023/05/13 08:07:30;;;;;;;3.70;1.70;;;;;;;11.39;100.00;92576.75;4940358;29;20639;-78
2023/05/13 08:09:56;;;;;;;3.47;1.70;;;;;;;11.61;100.00;92576.06;4941252;29;20051;-78
2023/05/13 08:12:21;;;;;;;3.80;1.70;;;;;;;11.99;100.00;92580.41;4942372;29;20062;-78
2023/05/13 08:14:47;;;;;;;236.50;7.72;;;;;;;11.60;100.00;92586.88;4937557;29;20063;-78
2023/05/13 08:17:13;;;;;;;71.13;4.20;;;;;;;11.18;100.00;92588.59;4939868;29;20066;-79
2023/05/13 08:19:39;;;;;;;51.65;3.63;;;;;;;10.77;100.00;92581.38;4943124;29;20581;-79
2023/05/13 08:22:05;;;;;;;171.40;6.20;;;;;;;10.56;100.00;92592.13;4942733;29;20513;-79
2023/05/13 08:24:30;;;;;;;110.07;4.97;;;;;;;10.55;100.00;92597.66;4943266;29;20028;-78
2023/05/13 08:26:56;;;;;;;5.32;2.53;;;;;;;10.37;100.00;92593.97;4942702;29;20036;-78
2023/05/13 08:29:22;;;;;;;3.10;1.65;;;;;;;10.50;100.00;92598.50;4942405;29;20040;-78
2023/05/13 08:31:47;;;;;;;2.92;1.60;;;;;;;10.52;100.00;92593.75;4941860;29;20104;-77
2023/05/13 08:34:13;;;;;;;4.70;2.10;;;;;;;10.65;100.00;92591.50;4942978;29;20071;-78
2023/05/13 08:36:39;;;;;;;2.95;1.90;;;;;;;10.49;100.00;92596.16;4942189;29;20636;-78
2023/05/13 08:39:06;;;;;;;3.70;2.03;;;;;;;10.54;100.00;92596.88;4940430;29;20357;-77
2023/05/13 08:41:33;;;;;;;4.25;2.00;;;;;;;10.48;100.00;92595.38;4942664;29;20035;-77
2023/05/13 08:44:02;;;;;;;4.60;1.77;;;;;;;10.61;100.00;92594.69;4941668;29;20456;-78
2023/05/13 08:46:31;;;;;;;3.40;1.80;;;;;;;10.59;100.00;92601.25;4940457;29;20094;-78
2023/05/13 08:48:57;;;;;;;5.22;2.00;;;;;;;10.65;100.00;92599.34;4939906;29;20031;-77
2023/05/13 08:51:23;;;;;;;3.05;1.60;;;;;;;10.89;100.00;92594.03;4938824;29;20048;-78
2023/05/13 08:53:51;;;;;;;3.00;1.88;;;;;;;11.04;100.00;92602.44;4952093;28;20592;-77
2023/05/13 08:56:16;;;;;;;3.97;1.58;;;;;;;11.14;100.00;92600.72;4943512;28;20042;-78
2023/05/13 08:58:42;;;;;;;2.63;1.60;;;;;;;11.20;100.00;92604.81;4955348;28;20023;-78
2023/05/13 09:01:09;;;;;;;2.17;1.48;;;;;;;11.49;100.00;92603.84;4953367;28;20114;-77
2023/05/13 09:03:38;;;;;;;2.85;1.58;;;;;;;11.55;100.00;92602.66;4926082;28;20082;-78
2023/05/13 09:06:04;;;;;;;3.50;1.75;;;;;;;11.60;100.00;92597.34;4954954;28;20050;-78
2023/05/13 09:08:31;;;;;;;3.67;1.80;;;;;;;11.57;100.00;92603.97;4955484;28;20043;-77
2023/05/13 09:10:57;;;;;;;2.10;1.30;;;;;;;11.65;100.00;92610.38;4953092;28;20047;-77
2023/05/13 09:13:22;;;;;;;7.88;1.83;;;;;;;11.71;100.00;92603.97;4953780;28;20043;-77
2023/05/13 09:15:49;;;;;;;3.03;1.80;;;;;;;11.85;100.00;92604.75;4954731;28;20384;-78
2023/05/13 09:18:15;;;;;;;2.72;1.60;;;;;;;11.95;100.00;92603.03;4954653;29;20023;-78
2023/05/13 09:20:40;;;;;;;3.50;2.28;;;;;;;12.08;100.00;92595.16;4956249;29;20074;-77
2023/05/13 09:23:09;;;;;;;7.60;3.03;;;;;;;12.04;100.00;92596.03;4939163;29;20042;-78
2023/05/13 09:25:36;;;;;;;5.70;3.40;;;;;;;11.75;100.00;92594.44;4940374;28;20095;-79
2023/05/13 09:28:04;;;;;;;4.78;2.17;;;;;;;11.37;100.00;92585.94;4957730;28;20046;-78
2023/05/13 09:30:41;;;;;;;3.67;2.20;;;;;;;11.54;100.00;92593.25;4959851;28;20485;-78
2023/05/13 09:33:15;;;;;;;3.83;1.77;;;;;;;11.60;100.00;92590.25;4959808;28;20036;-78
2023/05/13 09:35:48;;;;;;;3.10;1.80;;;;;;;11.84;100.00;92582.22;4957191;28;20039;-77
2023/05/13 09:38:24;;;;;;;2.72;1.83;;;;;;;11.76;100.00;92590.00;4958223;28;20062;-78
2023/05/13 09:40:50;;;;;;;5.28;2.88;;;;;;;11.82;100.00;92573.88;4957645;28;20445;-78
2023/05/13 09:43:18;;;;;;;3.78;1.98;;;;;;;12.12;100.00;92582.25;4954301;28;20069;-79
2023/05/13 09:45:43;;;;;;;4.07;2.55;;;;;;;11.84;100.00;92582.22;4943536;29;20119;-78
2023/05/13 09:48:10;;;;;;;5.15;2.30;;;;;;;11.39;100.00;92592.47;4942610;29;20078;-78
2023/05/13 09:50:47;;;;;;;4.30;2.40;;;;;;;11.16;100.00;92585.50;4958709;28;20042;-79
2023/05/13 09:53:12;;;;;;;6.60;2.70;;;;;;;10.96;100.00;92595.22;4951687;28;20090;-79
2023/05/13 09:55:43;;;;;;;5.90;3.10;;;;;;;11.07;100.00;92589.84;4957425;28;20066;-78
2023/05/13 09:58:11;;;;;;;6.30;2.63;;;;;;;11.21;100.00;92598.50;4957003;28;20039;-79
2023/05/13 10:00:40;;;;;;;5.10;2.25;;;;;;;11.37;100.00;92591.97;4953681;28;20059;-78
2023/05/13 10:03:06;;;;;;;6.53;2.10;;;;;;;11.65;100.00;92594.63;4957389;28;20028;-80
2023/05/13 10:05:32;;;;;;;4.68;1.90;;;;;;;11.91;100.00;92588.94;4962263;28;20099;-80
2023/05/13 10:08:00;;;;;;;8.07;2.08;;;;;;;11.93;100.00;92587.59;4955176;28;20062;-78
2023/05/13 10:10:31;;;;;;;3.90;2.40;;;;;;;12.12;100.00;92586.72;4956866;28;20030;-78
2023/05/13 10:13:07;;;;;;;3.42;1.80;;;;;;;12.04;100.00;92585.56;4955555;28;20122;-78
2023/05/13 10:15:35;;;;;;;3.47;1.80;;;;;;;11.91;100.00;92591.56;4953743;28;20043;-78
2023/05/13 10:18:01;;;;;;;2.88;1.88;;;;;;;12.03;100.00;92591.88;4957357;29;20111;-78
2023/05/13 10:20:27;;;;;;;5.15;2.15;;;;;;;12.13;100.00;92589.03;4954285;29;20063;-78
2023/05/13 10:22:54;;;;;;;1.80;1.30;;;;;;;11.94;100.00;92586.53;4956483;28;20038;-79
2023/05/13 10:25:20;;;;;;;5.40;2.83;;;;;;;11.87;100.00;92592.16;4956956;28;20030;-77
2023/05/13 10:27:46;;;;;;;3.55;2.05;;;;;;;11.85;100.00;92583.78;4948612;28;20086;-78
2023/05/13 10:30:12;;;;;;;4.32;2.22;;;;;;;11.67;100.00;92582.03;4906333;28;20040;-78
2023/05/13 10:32:39;;;;;;;3.45;2.10;;;;;;;11.56;100.00;92589.28;4949489;28;20497;-76
2023/05/13 10:35:12;;;;;;;4.03;2.22;;;;;;;11.53;100.00;92582.00;4951889;28;20039;-77
2023/05/13 10:37:58;;;;;;;4.65;2.55;;;;;;;11.63;100.00;92586.28;4947027;28;20481;-78
2023/05/13 10:40:41;;;;;;;3.75;2.40;;;;;;;11.80;100.00;92583.09;4940423;29;20031;-77
2023/05/13 10:43:21;;;;;;;6.53;2.40;;;;;;;11.77;100.00;92579.19;4952712;28;20042;-77
2023/05/13 10:45:54;;;;;;;4.00;2.25;;;;;;;11.67;100.00;92574.16;4951533;28;20397;-77
2023/05/13 10:48:21;;;;;;;3.85;2.25;;;;;;;11.65;100.00;92576.28;4935364;29;20102;-77
2023/05/13 10:51:00;;;;;;;6.40;2.78;;;;;;;12.34;100.00;92570.25;4933618;28;20042;-77
2023/05/13 10:53:31;;;;;;;3.17;1.65;;;;;;;12.23;100.00;92567.84;4951142;28;20047;-77
2023/05/13 10:55:58;;;;;;;4.90;2.40;;;;;;;12.08;100.00;92565.53;4951410;28;20166;-77
2023/05/13 10:58:36;;;;;;;5.72;2.10;;;;;;;11.81;100.00;92564.44;4952755;28;20031;-78
2023/05/13 11:01:15;;;;;;;3.00;2.00;;;;;;;12.05;100.00;92560.88;4938697;28;20035;-78
2023/05/13 11:03:50;;;;;;;3.53;2.05;;;;;;;11.94;100.00;92564.78;4946366;28;20031;-78
2023/05/13 11:06:18;;;;;;;4.20;2.35;;;;;;;11.95;100.00;92553.97;4948658;28;20065;-78
2023/05/13 11:08:46;;;;;;;7.60;2.60;;;;;;;12.00;100.00;92555.72;4952862;28;20035;-80
2023/05/13 11:11:25;;;;;;;3.47;2.47;;;;;;;12.02;100.00;92556.19;4941365;29;20441;-78
2023/05/13 11:13:52;;;;;;;5.45;3.17;;;;;;;12.17;100.00;92558.53;4955102;28;20037;-78
2023/05/13 11:16:19;;;;;;;4.57;2.80;;;;;;;12.36;100.00;92555.00;4955876;28;20031;-78
2023/05/13 11:18:45;;;;;;;5.18;2.40;;;;;;;12.46;100.00;92552.16;4950743;28;20031;-78
2023/05/13 11:21:11;;;;;;;3.50;2.17;;;;;;;12.54;100.00;92556.72;4938829;29;20063;-77
2023/05/13 11:24:04;;;;;;;5.07;2.00;;;;;;;12.53;100.00;92554.38;4959711;28;20031;-78
2023/05/13 11:26:49;;;;;;;;;;;;;;;12.76;100.00;92552.56;4948315;28;20059;-81
2023/05/13 11:29:28;;;;;;;4.40;2.05;;;;;;;13.06;100.00;92546.59;4952975;28;19997;-78